Pisek, Czech Republic
Current Conditions -  °F | °C
As of 1:00 PM on Wednesday 26 Nov 2014 (Local Time) from LKLN Reporting Station
Overcast Overcast  
Wind Chill: 31°   Ceiling: 2000
Heat Index: 37°   Visibility: 6mi
Dew Point: 32°   Wind: 8mph
Humidity: 81%   Direction: 130°SE
Pressure: 30.15"   Gusts: NA
Location:  49.31°N, 14.14°E
Report Text: LKLN 261100Z AUTO 13007KT 9999 OVC020 03/M00 Q1021
Loading
Personal Weather Stations






























Interactive Weather Map New forecast layout! Learn more

10-Day Weather Forecast

Advertisements
Track Severe Weather on mobile